シャージャラル国際空港(ダッカ)の過去48時間の天気

シャージャラル国際空港(ダッカ) (Kurmitola, Dia)

現在時刻: 7/5 10:11 +06 (7/5 04:11 UTC) 以下の時間は現地時間です。

過去48時間のMETAR気象情報
時間 風向 風速(m/s) 視程 気温(℃) 湿度(%) 気圧(hPa) 天気現象
5 09:30 南東 3 4000m 30 75 1001 煙霧
5 09:00 南東 3 4000m 29 74 1002 煙霧
5 08:30 東南東 3 4000m 29 74 1001 煙霧
5 08:00 南南東 3 4000m 29 74 1001 煙霧
5 07:30 南東 2 3500m 28 79 1001 煙霧
5 07:00 南南東 3 3500m 28 79 1000 煙霧
5 06:30 東南東 2 3500m 28 79 1000 煙霧
5 06:00 3 3500m 28 79 1000 煙霧
5 05:30 2 3500m 28 79 1000 煙霧
5 05:00 2 3500m 29 74 1000 煙霧
5 04:30 南南東 2 3500m 29 74 1000 煙霧
5 04:00 静穏 0 3500m 29 74 1000 煙霧
5 03:30 南東 2 3500m 29 74 1000 煙霧
5 03:00 静穏 0 3500m 29 74 1000 煙霧
5 02:30 東南東 2 3500m 29 74 1000 煙霧
5 02:00 静穏 0 3500m 29 74 1000 煙霧
5 01:30 静穏 0 3500m 30 70 1000 煙霧
5 01:00 2 3500m 30 70 1000 煙霧
5 00:30 2 3500m 30 70 1000 煙霧
5 00:00 2 3500m 30 70 1001 煙霧
4 23:30 南南東 3 3500m 30 70 1001 煙霧
4 23:00 2 3500m 30 70 1000 煙霧
4 22:30 南南東 2 4000m 30 70 1000 煙霧
4 22:00 2 4000m 30 66 1000 煙霧
4 21:30 静穏 0 4000m 31 66 1000 煙霧
4 21:00 静穏 0 4000m 31 66 999 煙霧
4 20:30 2 4000m 31 66 999 煙霧
4 20:00 南南西 2 4000m 31 62 999 煙霧
4 19:30 3 4000m 31 62 998 煙霧
4 19:00 3 4000m 32 63 998 煙霧
4 18:30 3 4000m 32 59 997 煙霧
4 18:00 南南東 4 4000m 33 56 997 煙霧
4 17:30 南南東 3 4000m 33 56 997 煙霧
4 17:00 南東 4 4000m 34 53 997 煙霧
4 16:30 東南東 3 4000m 34 60 997 煙霧
4 16:00 南南東 3 4000m 34 60 997 煙霧
4 15:30 4 4000m 34 60 997 煙霧
4 15:00 南東 4 3500m 33 63 998 煙霧
4 14:30 東北東 4 3500m 33 63 998 煙霧
4 14:00 5 3500m 32 67 999 煙霧
4 13:30 5 3500m 31 70 999 煙霧
4 13:00 南東 3 3500m 30 70 1000 煙霧
4 12:30 3 3500m 30 70 1000 煙霧
4 12:00 東南東 3 3500m 30 70 1001 煙霧
4 11:30 静穏 0 3500m 29 79 1001 煙霧
4 11:00 静穏 0 3500m 29 79 1002 煙霧
4 10:30 4 3500m 29 79 1002 煙霧
4 10:00 4 3500m 29 79 1002 煙霧
4 09:30 南南東 3 3500m 29 79 1001 煙霧
4 09:00 5 3500m 29 79 1001 煙霧
4 08:30 5 3500m 29 79 1001 煙霧
4 08:00 4 3500m 29 79 1001 煙霧
4 07:30 南南東 2 3500m 29 79 1001 煙霧
4 07:00 4 3500m 28 79 1001 霧雨
4 06:30 南東 2 3500m 28 79 1001 霧雨
4 06:00 3 3500m 28 79 1000 煙霧
4 05:30 4 3500m 28 79 1000 煙霧
4 05:00 4 4000m 28 79 1000 煙霧
4 04:30 5 4000m 28 79 1000 煙霧
4 04:00 3 4000m 28 74 1000 煙霧
4 03:30 4 4000m 29 70 1000 煙霧
4 03:00 4 4000m 29 70 1000 煙霧
4 02:30 3 4000m 30 70 1000 煙霧
4 02:00 3 4000m 30 70 1001 煙霧
4 01:30 南南東 4 4000m 30 70 1001 煙霧
4 01:00 南南東 4 4000m 30 70 1001 煙霧
4 00:30 南東 3 4000m 30 70 1001 煙霧
4 00:00 南東 3 4000m 30 70 1001 煙霧
3 23:30 3 4000m 31 66 1001 煙霧
3 23:00 南南東 3 4000m 31 66 1001 煙霧
3 22:30 3 4000m 31 66 1001 煙霧
3 22:00 3 4000m 31 66 1001 煙霧
3 21:03 3 4000m 31 66 1000 煙霧
3 21:00 3 4000m 31 66 1000 煙霧
3 20:30 4 4000m 31 66 1000 煙霧
3 20:00 4 4000m 31 66 1000 煙霧
3 19:30 南南西 4 4000m 31 62 999 煙霧
3 19:00 5 4000m 32 63 999 煙霧
3 18:30 4 4000m 32 63 999 煙霧
3 18:00 4 4000m 34 56 998 煙霧
3 17:30 5 4000m 34 56 998 煙霧
3 17:00 7 4000m 34 56 998 煙霧
3 16:30 南南東 5 4000m 33 63 998 煙霧
3 16:00 5 4000m 33 67 998 煙霧
3 15:30 3 4000m 33 71 998 煙霧
3 15:00 南南東 5 4000m 33 71 998 煙霧
3 14:30 5 4000m 32 67 999 煙霧
3 14:00 5 4000m 32 67 1000 煙霧
3 13:30 4 4000m 32 71 1000 煙霧
3 13:00 南南東 4 3500m 31 75 1000
3 12:30 4 3500m 31 75 1001
3 12:00 南東 4 3500m 31 75 1001 煙霧
3 11:30 3 3500m 31 75 1002 煙霧
3 11:00 東南東 4 3500m 30 79 1002 煙霧
3 10:30 2 3500m 30 79 1002 霧雨
VGHS 050330Z 14005KT 4000 HZ SCT015 BKN100 30/25 Q1001 NOSIG
VGHS 050300Z 13005KT 4000 HZ SCT015 BKN100 29/24 Q1002 NOSIG
VGHS 050230Z 12006KT 4000 HZ SCT015 BKN100 29/24 Q1001 NOSIG
VGHS 050200Z 15005KT 4000 HZ SCT015 BKN100 29/24 Q1001 NOSIG
VGHS 050130Z 14003KT 3500 HZ SCT015 BKN100 28/24 Q1001 NOSIG
VGHS 050100Z 15006KT 3500 HZ SCT015 BKN100 28/24 Q1000 NOSIG
VGHS 050030Z 12003KT 3500 HZ SCT012 BKN100 28/24 Q1000 NOSIG
VGHS 050000Z 09006KT 3500 HZ SCT012 BKN100 28/24 Q1000 NOSIG
VGHS 042330Z 09003KT 3500 HZ FEW015 SCT00 28/24 Q1000 NOSIG
VGHS 042300Z 09004KT 3500 HZ FEW015 SCT00 29/24 Q1000 NOSIG
VGHS 042230Z 15004KT 3500 HZ FEW015 SCT00 29/24 Q1000 NOSIG
VGHS 042200Z 00000KT 3500 HZ FEW015 SCT00 29/24 Q1000 NOSIG
VGHS 042130Z 13003KT 3500 HZ FEW100 29/24 Q1000 NOSIG
VGHS 042100Z 00000KT 3500 HZ FEW100 29/24 Q1000 NOSIG
VGHS 042030Z 11003KT 3500 HZ FEW100 29/24 Q1000 NOSIG
VGHS 042000Z 00000KT 3500 HZ FEW100 29/24 Q1000 NOSIG
VGHS 041930Z 00000KT 3500 HZ FEW100 30/24 Q1000 NOSIG
VGHS 041900Z 17003KT 3500 HZ FEW100 30/24 Q1000 NOSIG
VGHS 041830Z 19003KT 3500 HZ FEW100 30/24 Q1000 NOSIG
VGHS 041800Z 18004KT 3500 HZ FEW100 30/24 Q1001 NOSIG
VGHS 041730Z 16005KT 3500 HZ FEW100 30/24 Q1001 NOSIG
VGHS 041700Z 17003KT 3500 HZ FEW100 30/24 Q1000 NOSIG
VGHS 041630Z 16003KT 4000 HZ FEW100 30/24 Q1000 NOSIG
VGHS 041600Z 19004KT 4000 HZ FEW100 30/23 Q1000 NOSIG
VGHS 041530Z 00000KT 4000 HZ FEW100 31/24 Q1000 NOSIG
VGHS 041500Z 00000KT 4000 HZ FEW100 31/24 Q0999 NOSIG
VGHS 041430Z 19004KT 4000 HZ FEW100 31/24 Q0999 NOSIG
VGHS 041400Z 20004KT 4000 HZ FEW100 31/23 Q0999 NOSIG
VGHS 041330Z 19005KT 4000 HZ FEW015 SCT100 31/23 Q0998 NOSIG
VGHS 041300Z 18005KT 4000 HZ FEW015 SCT100 32/24 Q0998 NOSIG
VGHS 041230Z 17006KT 4000 HZ FEW015 SCT100 32/23 Q0997 NOSIG
VGHS 041200Z 16008KT 4000 HZ FEW015 SCT100 33/23 Q0997 NOSIG
VGHS 041130Z 15005KT 4000 HZ FEW025 SCT100 33/23 Q0997 NOSIG
VGHS 041100Z 13008KT 4000 HZ FEW025 SCT100 34/23 Q0997 NOSIG
VGHS 041030Z 12005KT 4000 HZ FEW025 SCT100 34/25 Q0997 NOSIG
VGHS 041000Z 15006KT 4000 HZ FEW012 SCT100 34/25 Q0997 NOSIG
VGHS 040930Z 19008KT 4000 HZ FEW012 SCT100 34/25 Q0997 NOSIG
VGHS 040900Z 13008KT 3500 HZ FEW012 SCT100 33/25 Q0998 NOSIG
VGHS 040830Z 07008KT 3500 HZ FEW012 SCT100 33/25 Q0998 NOSIG
VGHS 040800Z 17010KT 3500 HZ FEW015 SCT100 32/25 Q0999 NOSIG
VGHS 040730Z 18010KT 3500 HZ SCT012 BKN100 31/25 Q0999 NOSIG
VGHS 040700Z 13006KT 3500 HZ SCT012 BKN100 30/24 Q1000 NOSIG
VGHS 040630Z 10005KT 3500 HZ SCT012 BKN100 30/24 Q1000 NOSIG
VGHS 040600Z 12005KT 3500 HZ SCT012 BKN100 30/24 Q1001 NOSIG
VGHS 040530Z 00000KT 3500 HZ SCT012 BKN100 29/25 Q1001 NOSIG
VGHS 040500Z 00000KT 3500 HZ SCT012 BKN100 29/25 Q1002 NOSIG
VGHS 040430Z 18007KT 3500 HZ SCT012 BKN100 29/25 Q1002 NOSIG
VGHS 040400Z 18008KT 3500 HZ SCT012 BKN100 29/25 Q1002 NOSIG
VGHS 040330Z 16006KT 3500 HZ SCT012 FEW025CB BKN100 29/25 Q1001 TEMPO RA
VGHS 040300Z 19009KT 3500 HZ SCT012 FEW025CB BKN100 29/25 Q1001 TEMPO RA
VGHS 040230Z 18010KT 3500 HZ SCT012 FEW025CB BKN100 29/25 Q1001 TEMPO TSRA
VGHS 040200Z 17008KT 3500 HZ SCT010 FEW025CB BKN100 29/25 Q1001 TEMPO TSRA
VGHS 040130Z 16004KT 3500 HZ SCT010 FEW025CB BKN100 29/25 Q1001 TEMPO TSRA
VGHS 040100Z 18007KT 3500 DZ SCT010 FEW025CB BKN100 28/24 Q1001 TEMPO TSRA
VGHS 040030Z 13004KT 3500 DZ SCT010 BKN100 28/24 Q1001 TEMPO RA
VGHS 040000Z 17005KT 3500 HZ SCT012 BKN100 28/24 Q1000 NOSIG
VGHS 032330Z 19007KT 3500 HZ SCT012 BKN100 28/24 Q1000 NOSIG
VGHS 032300Z 18008KT 4000 HZ SCT012 BKN100 28/24 Q1000 NOSIG
VGHS 032230Z 18010KT 4000 HZ SCT012 BKN100 28/24 Q1000 NOSIG
VGHS 032200Z 18006KT 4000 HZ SCT012 BKN100 28/23 Q1000 NOSIG
VGHS 032130Z 17007KT 4000 HZ SCT012 BKN100 29/23 Q1000 NOSIG
VGHS 032100Z 18008KT 4000 HZ SCT012 BKN100 29/23 Q1000 NOSIG
VGHS 032030Z 18006KT 4000 HZ SCT012 BKN100 30/24 Q1000 NOSIG
VGHS 032000Z 17006KT 4000 HZ SCT012 BKN100 30/24 Q1001 NOSIG
VGHS 031930Z 16008KT 4000 HZ SCT012 BKN100 30/24 Q1001 NOSIG
VGHS 031900Z 15007KT 4000 HZ SCT012 BKN100 30/24 Q1001 NOSIG
VGHS 031830Z 14005KT 4000 HZ SCT012 BKN100 30/24 Q1001 NOSIG
VGHS 031800Z 14006KT 4000 HZ SCT012 BKN100 30/24 Q1001 NOSIG
VGHS 031730Z 18005KT 4000 HZ SCT012 BKN100 31/24 Q1001 NOSIG
VGHS 031700Z 15005KT 4000 HZ SCT012 BKN100 31/24 Q1001 NOSIG
VGHS 031630Z 17005KT 4000 HZ SCT012 BKN100 31/24 Q1001 NOSIG
VGHS 031600Z 18006KT 4000 HZ SCT012 BKN100 31/24 Q1001 NOSIG
VGHS 031503Z 19005KT 4000 HZ SCT012 BKN100 31/24 Q1000 NOSIG
VGHS 031500Z 18006KT 4000 HZ SCT012 BKN100 31/24 Q1000 NOSIG
VGHS 031430Z 17008KT 4000 HZ SCT012 BKN100 31/24 Q1000 NOSIG
VGHS 031400Z 18008KT 4000 HZ SCT012 BKN100 31/24 Q1000 NOSIG
VGHS 031330Z 20008KT 4000 HZ SCT012 BKN100 31/23 Q0999 NOSIG
VGHS 031300Z 19009KT 4000 HZ SCT012 BKN100 32/24 Q0999 NOSIG
VGHS 031230Z 19008KT 4000 HZ SCT012 BKN100 32/24 Q0999 NOSIG
VGHS 031200Z 19008KT 4000 HZ FEW012 SCT100 34/24 Q0998 NOSIG
VGHS 031130Z 19010KT 4000 HZ FEW012 SCT100 34/24 Q0998 NOSIG
VGHS 031100Z 19013KT 4000 HZ FEW012 SCT100 34/24 Q0998 NOSIG
VGHS 031030Z 15009KT 4000 HZ FEW012 SCT100 33/25 Q0998 NOSIG
VGHS 031000Z 17010KT 4000 HZ SCT012 BKN100 33/26 Q0998 NOSIG
VGHS 030930Z 17005KT 4000 HZ SCT010 BKN100 33/27 Q0998 NOSIG
VGHS 030900Z 16010KT 4000 HZ SCT010 BKN100 33/27 Q0998 NOSIG
VGHS 030830Z 18010KT 4000 HZ SCT010 BKN100 32/25 Q0999 NOSIG
VGHS 030800Z 19010KT 4000 HZ SCT010 BKN100 32/25 Q1000 NOSIG
VGHS 030730Z 19007KT 4000 HZ SCT010 BKN100 32/26 Q1000 NOSIG
VGHS 030700Z 15007KT 3500 TS BKN010 FEW025CB BKN100 31/26 Q1000 TEMPO TSRA
VGHS 030630Z 18007KT 3500 TS BKN010 FEW025CB BKN100 31/26 Q1001 TEMPO TSRA
VGHS 030600Z 14007KT 3500 HZ BKN010 BKN100 31/26 Q1001 TEMPO RA
VGHS 030530Z 17006KT 3500 HZ BKN010 FEW025CB BKN100 31/26 Q1002 TEMPO TSRA
VGHS 030500Z 12008KT 3500 HZ BKN010 FEW025CB BKN100 30/26 Q1002 TEMPO TSRA
VGHS 030430Z 09004KT 3500 DZ SCT010 FEW025CB BKN100 30/26 Q1002 TEMPO TSRA